sensor_id;sensor_type;location;lat;lon;timestamp;pressure;altitude;pressure_sealevel;temperature;humidity
37852;BME280;23691;52.486;4.650;2023-04-19T00:02:20;102898.00;;;10.96;66.74
37852;BME280;23691;52.486;4.650;2023-04-19T00:04:46;102899.84;;;10.95;66.46
37852;BME280;23691;52.486;4.650;2023-04-19T00:07:12;102899.94;;;10.94;66.66
37852;BME280;23691;52.486;4.650;2023-04-19T00:09:38;102893.50;;;10.96;66.63
37852;BME280;23691;52.486;4.650;2023-04-19T00:12:04;102896.19;;;10.96;66.92
37852;BME280;23691;52.486;4.650;2023-04-19T00:14:30;102900.69;;;10.96;66.85
37852;BME280;23691;52.486;4.650;2023-04-19T00:16:55;102899.72;;;10.97;66.88
37852;BME280;23691;52.486;4.650;2023-04-19T00:19:21;102902.53;;;10.95;66.98
37852;BME280;23691;52.486;4.650;2023-04-19T00:21:48;102900.28;;;10.89;66.85
37852;BME280;23691;52.486;4.650;2023-04-19T00:24:19;102897.50;;;10.91;66.98
37852;BME280;23691;52.486;4.650;2023-04-19T00:26:45;102903.72;;;10.91;67.15
37852;BME280;23691;52.486;4.650;2023-04-19T00:29:10;102903.81;;;10.90;67.18
37852;BME280;23691;52.486;4.650;2023-04-19T00:31:36;102909.16;;;10.90;67.35
37852;BME280;23691;52.486;4.650;2023-04-19T00:34:03;102898.69;;;10.87;67.36
37852;BME280;23691;52.486;4.650;2023-04-19T00:36:29;102901.38;;;10.87;67.28
37852;BME280;23691;52.486;4.650;2023-04-19T00:38:54;102899.69;;;10.86;67.41
37852;BME280;23691;52.486;4.650;2023-04-19T00:41:24;102903.56;;;10.82;67.58
37852;BME280;23691;52.486;4.650;2023-04-19T00:43:49;102898.09;;;10.83;67.48
37852;BME280;23691;52.486;4.650;2023-04-19T00:46:15;102891.84;;;10.83;67.43
37852;BME280;23691;52.486;4.650;2023-04-19T00:48:41;102897.34;;;10.81;67.65
37852;BME280;23691;52.486;4.650;2023-04-19T00:51:07;102891.25;;;10.79;67.57
37852;BME280;23691;52.486;4.650;2023-04-19T00:53:37;102888.56;;;10.79;67.68
37852;BME280;23691;52.486;4.650;2023-04-19T00:56:05;102895.63;;;10.80;67.61
37852;BME280;23691;52.486;4.650;2023-04-19T00:58:34;102887.72;;;10.79;67.73
37852;BME280;23691;52.486;4.650;2023-04-19T01:01:02;102886.88;;;10.78;67.62
37852;BME280;23691;52.486;4.650;2023-04-19T01:03:29;102893.94;;;10.79;67.55
37852;BME280;23691;52.486;4.650;2023-04-19T01:05:55;102887.97;;;10.76;67.82
37852;BME280;23691;52.486;4.650;2023-04-19T01:08:26;102896.94;;;10.74;67.71
37852;BME280;23691;52.486;4.650;2023-04-19T01:10:52;102889.75;;;10.75;67.92
37852;BME280;23691;52.486;4.650;2023-04-19T01:13:19;102876.63;;;10.72;67.91
37852;BME280;23691;52.486;4.650;2023-04-19T01:15:45;102889.25;;;10.70;68.00
37852;BME280;23691;52.486;4.650;2023-04-19T01:18:13;102887.31;;;10.72;68.16
37852;BME280;23691;52.486;4.650;2023-04-19T01:20:43;102888.91;;;10.74;68.24
37852;BME280;23691;52.486;4.650;2023-04-19T01:23:08;102887.31;;;10.72;68.18
37852;BME280;23691;52.486;4.650;2023-04-19T01:25:36;102881.97;;;10.72;68.10
37852;BME280;23691;52.486;4.650;2023-04-19T01:28:02;102876.00;;;10.68;68.35
37852;BME280;23691;52.486;4.650;2023-04-19T01:30:30;102874.41;;;10.66;68.39
37852;BME280;23691;52.486;4.650;2023-04-19T01:33:01;102875.50;;;10.63;68.59
37852;BME280;23691;52.486;4.650;2023-04-19T01:35:29;102874.63;;;10.63;68.71
37852;BME280;23691;52.486;4.650;2023-04-19T01:37:55;102876.34;;;10.64;68.62
37852;BME280;23691;52.486;4.650;2023-04-19T01:40:24;102876.34;;;10.64;68.74
37852;BME280;23691;52.486;4.650;2023-04-19T01:42:50;102879.88;;;10.64;68.92
37852;BME280;23691;52.486;4.650;2023-04-19T01:45:16;102880.97;;;10.62;68.85
37852;BME280;23691;52.486;4.650;2023-04-19T01:47:44;102867.06;;;10.57;69.10
37852;BME280;23691;52.486;4.650;2023-04-19T01:50:09;102866.31;;;10.55;69.09
37852;BME280;23691;52.486;4.650;2023-04-19T01:52:35;102871.69;;;10.55;69.06
37852;BME280;23691;52.486;4.650;2023-04-19T01:55:01;102871.56;;;10.56;68.96
37852;BME280;23691;52.486;4.650;2023-04-19T01:57:26;102869.00;;;10.55;69.00
37852;BME280;23691;52.486;4.650;2023-04-19T01:59:52;102868.41;;;10.51;69.03
37852;BME280;23691;52.486;4.650;2023-04-19T02:02:20;102869.84;;;10.55;69.25
37852;BME280;23691;52.486;4.650;2023-04-19T02:04:45;102875.34;;;10.53;69.38
37852;BME280;23691;52.486;4.650;2023-04-19T02:07:11;102871.69;;;10.55;69.33
37852;BME280;23691;52.486;4.650;2023-04-19T02:09:37;102868.16;;;10.54;69.44
37852;BME280;23691;52.486;4.650;2023-04-19T02:12:04;102871.69;;;10.55;69.36
37852;BME280;23691;52.486;4.650;2023-04-19T02:14:30;102869.84;;;10.55;69.43
37852;BME280;23691;52.486;4.650;2023-04-19T02:16:56;102867.19;;;10.55;69.43
37852;BME280;23691;52.486;4.650;2023-04-19T02:19:22;102872.75;;;10.52;69.33
37852;BME280;23691;52.486;4.650;2023-04-19T02:21:48;102867.41;;;10.52;69.76
37852;BME280;23691;52.486;4.650;2023-04-19T02:24:14;102864.50;;;10.55;69.74
37852;BME280;23691;52.486;4.650;2023-04-19T02:26:41;102867.66;;;10.49;69.77
37852;BME280;23691;52.486;4.650;2023-04-19T02:29:07;102864.22;;;10.47;69.88
37852;BME280;23691;52.486;4.650;2023-04-19T02:31:36;102867.84;;;10.46;70.08
37852;BME280;23691;52.486;4.650;2023-04-19T02:34:01;102865.06;;;10.47;70.03
37852;BME280;23691;52.486;4.650;2023-04-19T02:36:30;102870.53;;;10.46;70.01
37852;BME280;23691;52.486;4.650;2023-04-19T02:39:02;102868.84;;;10.45;70.23
37852;BME280;23691;52.486;4.650;2023-04-19T02:41:30;102875.88;;;10.46;70.20
37852;BME280;23691;52.486;4.650;2023-04-19T02:43:55;102877.59;;;10.47;70.18
37852;BME280;23691;52.486;4.650;2023-04-19T02:46:24;102872.50;;;10.44;70.37
37852;BME280;23691;52.486;4.650;2023-04-19T02:48:50;102875.16;;;10.44;70.57
37852;BME280;23691;52.486;4.650;2023-04-19T02:51:16;102877.84;;;10.44;70.89
37852;BME280;23691;52.486;4.650;2023-04-19T02:53:44;102878.56;;;10.46;70.70
37852;BME280;23691;52.486;4.650;2023-04-19T02:56:11;102863.38;;;10.46;70.74
37852;BME280;23691;52.486;4.650;2023-04-19T02:58:37;102873.22;;;10.46;71.04
37852;BME280;23691;52.486;4.650;2023-04-19T03:01:05;102876.63;;;10.48;70.87
37852;BME280;23691;52.486;4.650;2023-04-19T03:03:39;102872.16;;;10.48;71.06
37852;BME280;23691;52.486;4.650;2023-04-19T03:06:04;102874.84;;;10.48;71.20
37852;BME280;23691;52.486;4.650;2023-04-19T03:08:30;102876.53;;;10.49;71.03
37852;BME280;23691;52.486;4.650;2023-04-19T03:10:57;102868.50;;;10.49;71.18
37852;BME280;23691;52.486;4.650;2023-04-19T03:13:22;102880.53;;;10.44;71.48
37852;BME280;23691;52.486;4.650;2023-04-19T03:15:51;102875.03;;;10.45;71.67
37852;BME280;23691;52.486;4.650;2023-04-19T03:18:17;102879.31;;;10.48;71.62
37852;BME280;23691;52.486;4.650;2023-04-19T03:20:42;102884.56;;;10.49;71.69
37852;BME280;23691;52.486;4.650;2023-04-19T03:23:08;102876.41;;;10.51;71.68
37852;BME280;23691;52.486;4.650;2023-04-19T03:25:33;102875.44;;;10.52;71.64
37852;BME280;23691;52.486;4.650;2023-04-19T03:28:03;102888.22;;;10.48;71.97
37852;BME280;23691;52.486;4.650;2023-04-19T03:30:32;102870.53;;;10.46;72.07
37852;BME280;23691;52.486;4.650;2023-04-19T03:33:04;102871.41;;;10.46;72.02
37852;BME280;23691;52.486;4.650;2023-04-19T03:35:30;102870.53;;;10.46;72.19
37852;BME280;23691;52.486;4.650;2023-04-19T03:37:57;102876.75;;;10.46;72.01
37852;BME280;23691;52.486;4.650;2023-04-19T03:40:22;102861.66;;;10.45;71.95
37852;BME280;23691;52.486;4.650;2023-04-19T03:42:52;102875.16;;;10.44;72.00
37852;BME280;23691;52.486;4.650;2023-04-19T03:45:18;102869.91;;;10.42;71.91
37852;BME280;23691;52.486;4.650;2023-04-19T03:47:46;102879.78;;;10.42;71.93
37852;BME280;23691;52.486;4.650;2023-04-19T03:50:12;102872.84;;;10.39;71.92
37852;BME280;23691;52.486;4.650;2023-04-19T03:52:40;102869.41;;;10.37;71.92
37852;BME280;23691;52.486;4.650;2023-04-19T03:55:08;102872.31;;;10.34;71.91
37852;BME280;23691;52.486;4.650;2023-04-19T03:57:35;102875.00;;;10.34;71.88
37852;BME280;23691;52.486;4.650;2023-04-19T04:00:00;102872.19;;;10.36;71.66
37852;BME280;23691;52.486;4.650;2023-04-19T04:02:26;102870.50;;;10.35;71.57
37852;BME280;23691;52.486;4.650;2023-04-19T04:04:55;102865.88;;;10.37;71.59
37852;BME280;23691;52.486;4.650;2023-04-19T04:07:23;102868.56;;;10.37;71.40
37852;BME280;23691;52.486;4.650;2023-04-19T04:09:53;102872.19;;;10.36;71.43
37852;BME280;23691;52.486;4.650;2023-04-19T04:12:19;102869.31;;;10.39;71.56
37852;BME280;23691;52.486;4.650;2023-04-19T04:14:50;102868.22;;;10.41;71.26
37852;BME280;23691;52.486;4.650;2023-04-19T04:17:19;102874.66;;;10.39;71.36
37852;BME280;23691;52.486;4.650;2023-04-19T04:19:48;102874.28;;;10.43;71.29
37852;BME280;23691;52.486;4.650;2023-04-19T04:22:13;102877.19;;;10.40;71.05
37852;BME280;23691;52.486;4.650;2023-04-19T04:24:43;102877.19;;;10.40;70.80
37852;BME280;23691;52.486;4.650;2023-04-19T04:27:11;102874.66;;;10.39;70.84
37852;BME280;23691;52.486;4.650;2023-04-19T04:29:41;102875.84;;;10.35;70.77
37852;BME280;23691;52.486;4.650;2023-04-19T04:32:08;102878.63;;;10.33;70.57
37852;BME280;23691;52.486;4.650;2023-04-19T04:34:37;102880.44;;;10.32;70.43
37852;BME280;23691;52.486;4.650;2023-04-19T04:37:03;102885.06;;;10.30;70.67
37852;BME280;23691;52.486;4.650;2023-04-19T04:39:28;102887.19;;;10.25;70.54
37852;BME280;23691;52.486;4.650;2023-04-19T04:42:02;102880.34;;;10.21;70.64
37852;BME280;23691;52.486;4.650;2023-04-19T04:44:27;102884.75;;;10.22;70.44
37852;BME280;23691;52.486;4.650;2023-04-19T04:47:00;102887.66;;;10.19;70.49
37852;BME280;23691;52.486;4.650;2023-04-19T04:49:30;102882.63;;;10.15;70.14
37852;BME280;23691;52.486;4.650;2023-04-19T04:51:58;102889.69;;;10.16;70.32
37852;BME280;23691;52.486;4.650;2023-04-19T04:54:29;102880.81;;;10.15;70.23
37852;BME280;23691;52.486;4.650;2023-04-19T04:56:54;102887.66;;;10.19;70.05
37852;BME280;23691;52.486;4.650;2023-04-19T04:59:23;102886.78;;;10.19;69.95
37852;BME280;23691;52.486;4.650;2023-04-19T05:01:51;102891.41;;;10.17;69.87
37852;BME280;23691;52.486;4.650;2023-04-19T05:04:29;102898.78;;;10.13;69.74
37852;BME280;23691;52.486;4.650;2023-04-19T05:07:06;102889.69;;;10.16;69.75
37852;BME280;23691;52.486;4.650;2023-04-19T05:09:46;102893.19;;;10.16;69.54
37852;BME280;23691;52.486;4.650;2023-04-19T05:12:16;102899.53;;;10.15;69.39
37852;BME280;23691;52.486;4.650;2023-04-19T05:14:58;102906.69;;;10.15;69.26
37852;BME280;23691;52.486;4.650;2023-04-19T05:17:39;102892.69;;;10.11;69.23
37852;BME280;23691;52.486;4.650;2023-04-19T05:20:10;102898.03;;;10.11;69.16
37852;BME280;23691;52.486;4.650;2023-04-19T05:23:06;102893.56;;;10.12;68.84
37852;BME280;23691;52.486;4.650;2023-04-19T05:25:45;102898.16;;;10.09;68.92
37852;BME280;23691;52.486;4.650;2023-04-19T05:28:21;102900.09;;;10.07;68.69
37852;BME280;23691;52.486;4.650;2023-04-19T05:31:01;102899.00;;;10.10;68.71
37852;BME280;23691;52.486;4.650;2023-04-19T05:33:39;102899.94;;;10.09;68.49
37852;BME280;23691;52.486;4.650;2023-04-19T05:36:10;102905.09;;;10.12;68.37
37852;BME280;23691;52.486;4.650;2023-04-19T05:38:58;102901.59;;;10.12;67.78
37852;BME280;23691;52.486;4.650;2023-04-19T05:41:26;102910.13;;;10.17;67.63
37852;BME280;23691;52.486;4.650;2023-04-19T05:47:10;102909.66;;;10.23;67.35
37852;BME280;23691;52.486;4.650;2023-04-19T05:49:38;102908.91;;;10.21;67.21
37852;BME280;23691;52.486;4.650;2023-04-19T05:52:08;102915.00;;;10.23;66.83
37852;BME280;23691;52.486;4.650;2023-04-19T05:54:34;102915.56;;;10.28;66.54
37852;BME280;23691;52.486;4.650;2023-04-19T05:57:05;102909.44;;;10.26;66.25
37852;BME280;23691;52.486;4.650;2023-04-19T05:59:33;102903.91;;;10.29;66.04
37852;BME280;23691;52.486;4.650;2023-04-19T06:01:59;102907.94;;;10.35;65.77
37852;BME280;23691;52.486;4.650;2023-04-19T06:04:26;102907.47;;;10.41;65.35
37852;BME280;23691;52.486;4.650;2023-04-19T06:06:52;102919.91;;;10.42;65.11
37852;BME280;23691;52.486;4.650;2023-04-19T06:09:17;102915.50;;;10.41;64.56
37852;BME280;23691;52.486;4.650;2023-04-19T06:11:43;102918.31;;;10.39;64.20
37852;BME280;23691;52.486;4.650;2023-04-19T06:14:10;102925.13;;;10.43;63.72
37852;BME280;23691;52.486;4.650;2023-04-19T06:16:36;102928.69;;;10.44;63.62
37852;BME280;23691;52.486;4.650;2023-04-19T06:19:02;102920.53;;;10.45;63.42
37852;BME280;23691;52.486;4.650;2023-04-19T06:21:30;102930.81;;;10.51;62.99
37852;BME280;23691;52.486;4.650;2023-04-19T06:23:57;102933.00;;;10.58;63.01
37852;BME280;23691;52.486;4.650;2023-04-19T06:26:22;102934.59;;;10.60;62.67
37852;BME280;23691;52.486;4.650;2023-04-19T06:28:48;102936.19;;;10.63;62.62
37852;BME280;23691;52.486;4.650;2023-04-19T06:31:13;102930.50;;;10.67;62.41
37852;BME280;23691;52.486;4.650;2023-04-19T06:33:38;102931.00;;;10.72;62.07
37852;BME280;23691;52.486;4.650;2023-04-19T06:36:04;102935.28;;;10.75;61.97
37852;BME280;23691;52.486;4.650;2023-04-19T06:38:30;102933.47;;;10.76;61.66
37852;BME280;23691;52.486;4.650;2023-04-19T06:40:55;102932.25;;;10.80;61.45
37852;BME280;23691;52.486;4.650;2023-04-19T06:43:21;102921.09;;;10.86;61.34
37852;BME280;23691;52.486;4.650;2023-04-19T06:45:46;102932.44;;;10.89;61.32
37852;BME280;23691;52.486;4.650;2023-04-19T06:48:12;102932.94;;;10.94;60.96
37852;BME280;23691;52.486;4.650;2023-04-19T06:50:37;102919.53;;;10.94;60.70
37852;BME280;23691;52.486;4.650;2023-04-19T06:53:03;102931.84;;;10.97;60.53
37852;BME280;23691;52.486;4.650;2023-04-19T06:55:28;102936.00;;;11.01;60.39
37852;BME280;23691;52.486;4.650;2023-04-19T06:57:55;102926.28;;;11.00;60.40
37852;BME280;23691;52.486;4.650;2023-04-19T07:00:21;102936.84;;;11.02;59.92
37852;BME280;23691;52.486;4.650;2023-04-19T07:02:48;102930.16;;;11.07;59.69
37852;BME280;23691;52.486;4.650;2023-04-19T07:05:14;102931.16;;;11.06;58.85
37852;BME280;23691;52.486;4.650;2023-04-19T07:07:39;102935.03;;;11.02;59.06
37852;BME280;23691;52.486;4.650;2023-04-19T07:10:07;102933.72;;;11.08;58.61
37852;BME280;23691;52.486;4.650;2023-04-19T07:12:32;102939.09;;;11.08;58.15
37852;BME280;23691;52.486;4.650;2023-04-19T07:14:58;102943.13;;;11.13;58.08
37852;BME280;23691;52.486;4.650;2023-04-19T07:17:23;102932.78;;;11.20;57.73
37852;BME280;23691;52.486;4.650;2023-04-19T07:19:49;102938.75;;;11.24;57.41
37852;BME280;23691;52.486;4.650;2023-04-19T07:22:15;102950.97;;;11.28;57.62
37852;BME280;23691;52.486;4.650;2023-04-19T07:24:40;102930.00;;;11.33;57.20
37852;BME280;23691;52.486;4.650;2023-04-19T07:27:06;102931.84;;;11.44;57.22
37852;BME280;23691;52.486;4.650;2023-04-19T07:29:35;102927.97;;;11.48;56.68
37852;BME280;23691;52.486;4.650;2023-04-19T07:32:02;102925.03;;;11.51;56.53
37852;BME280;23691;52.486;4.650;2023-04-19T07:34:27;102923.94;;;11.53;56.50
37852;BME280;23691;52.486;4.650;2023-04-19T07:36:53;102924.19;;;11.61;56.18
37852;BME280;23691;52.486;4.650;2023-04-19T07:39:20;102931.66;;;11.69;56.03
37852;BME280;23691;52.486;4.650;2023-04-19T07:41:46;102927.72;;;11.73;56.05
37852;BME280;23691;52.486;4.650;2023-04-19T07:44:11;102918.22;;;11.80;56.04
37852;BME280;23691;52.486;4.650;2023-04-19T07:46:38;102917.66;;;11.88;55.67
37852;BME280;23691;52.486;4.650;2023-04-19T07:49:03;102927.91;;;11.94;55.15
37852;BME280;23691;52.486;4.650;2023-04-19T07:51:28;102930.09;;;12.00;54.91
37852;BME280;23691;52.486;4.650;2023-04-19T07:53:54;102916.03;;;12.08;54.89
37852;BME280;23691;52.486;4.650;2023-04-19T07:56:21;102914.84;;;12.12;54.25
37852;BME280;23691;52.486;4.650;2023-04-19T07:58:46;102915.09;;;12.09;53.79
37852;BME280;23691;52.486;4.650;2023-04-19T08:01:20;102921.66;;;12.16;53.82
37852;BME280;23691;52.486;4.650;2023-04-19T08:03:45;102920.66;;;12.29;53.64
37852;BME280;23691;52.486;4.650;2023-04-19T08:06:11;102923.31;;;12.40;53.62
37852;BME280;23691;52.486;4.650;2023-04-19T08:08:38;102925.25;;;12.49;53.27
37852;BME280;23691;52.486;4.650;2023-04-19T08:11:04;102922.78;;;12.57;53.15
37852;BME280;23691;52.486;4.650;2023-04-19T08:13:30;102924.22;;;12.61;52.97
37852;BME280;23691;52.486;4.650;2023-04-19T08:15:56;102923.00;;;12.65;52.59
37852;BME280;23691;52.486;4.650;2023-04-19T08:18:22;102921.28;;;12.64;51.98
37852;BME280;23691;52.486;4.650;2023-04-19T08:20:47;102918.00;;;12.61;51.60
37852;BME280;23691;52.486;4.650;2023-04-19T08:23:13;102926.06;;;12.61;51.33
37852;BME280;23691;52.486;4.650;2023-04-19T08:25:41;102935.97;;;12.60;50.76
37852;BME280;23691;52.486;4.650;2023-04-19T08:28:07;102929.59;;;12.61;50.57
37852;BME280;23691;52.486;4.650;2023-04-19T08:30:32;102918.38;;;12.67;50.24
37852;BME280;23691;52.486;4.650;2023-04-19T08:32:59;102929.16;;;12.77;49.83
37852;BME280;23691;52.486;4.650;2023-04-19T08:35:25;102932.94;;;12.86;49.76
37852;BME280;23691;52.486;4.650;2023-04-19T08:37:51;102933.13;;;12.94;49.48
37852;BME280;23691;52.486;4.650;2023-04-19T08:40:17;102933.59;;;12.99;49.28
37852;BME280;23691;52.486;4.650;2023-04-19T08:42:42;102924.03;;;13.06;49.09
37852;BME280;23691;52.486;4.650;2023-04-19T08:45:08;102936.56;;;13.17;48.67
37852;BME280;23691;52.486;4.650;2023-04-19T08:47:40;102922.88;;;13.20;48.15
37852;BME280;23691;52.486;4.650;2023-04-19T08:50:07;102913.13;;;13.19;48.13
37852;BME280;23691;52.486;4.650;2023-04-19T08:52:34;102922.47;;;13.25;48.07
37852;BME280;23691;52.486;4.650;2023-04-19T08:55:04;102922.84;;;13.31;47.73
37852;BME280;23691;52.486;4.650;2023-04-19T08:57:31;102927.69;;;13.38;47.36
37852;BME280;23691;52.486;4.650;2023-04-19T08:59:58;102903.59;;;13.36;46.55
37852;BME280;23691;52.486;4.650;2023-04-19T09:02:23;102917.91;;;13.37;46.52
37852;BME280;23691;52.486;4.650;2023-04-19T09:04:48;102908.47;;;13.42;46.43
37852;BME280;23691;52.486;4.650;2023-04-19T09:07:24;102912.59;;;13.46;46.07
37852;BME280;23691;52.486;4.650;2023-04-19T09:10:23;102912.13;;;13.41;45.72
37852;BME280;23691;52.486;4.650;2023-04-19T09:13:01;102910.44;;;13.40;45.70
37852;BME280;23691;52.486;4.650;2023-04-19T09:15:40;102911.88;;;13.44;45.43
37852;BME280;23691;52.486;4.650;2023-04-19T09:18:09;102914.16;;;13.49;45.25
37852;BME280;23691;52.486;4.650;2023-04-19T09:20:39;102906.28;;;13.57;45.15
37852;BME280;23691;52.486;4.650;2023-04-19T09:23:07;102909.84;;;13.67;45.38
37852;BME280;23691;52.486;4.650;2023-04-19T09:25:33;102921.78;;;13.74;45.11
37852;BME280;23691;52.486;4.650;2023-04-19T09:28:10;102911.88;;;13.75;44.93
37852;BME280;23691;52.486;4.650;2023-04-19T09:30:36;102912.88;;;13.74;44.48
37852;BME280;23691;52.486;4.650;2023-04-19T09:33:02;102904.91;;;13.72;44.18
37852;BME280;23691;52.486;4.650;2023-04-19T09:35:45;102911.59;;;13.68;44.14
37852;BME280;23691;52.486;4.650;2023-04-19T09:38:13;102911.44;;;13.70;44.16
37852;BME280;23691;52.486;4.650;2023-04-19T09:40:39;102911.47;;;13.80;44.52
37852;BME280;23691;52.486;4.650;2023-04-19T09:43:05;102909.66;;;13.90;44.32
37852;BME280;23691;52.486;4.650;2023-04-19T09:45:44;102914.34;;;13.98;44.08
37852;BME280;23691;52.486;4.650;2023-04-19T09:48:10;102894.84;;;14.05;44.70
37852;BME280;23691;52.486;4.650;2023-04-19T09:50:53;102895.84;;;14.14;44.35
37852;BME280;23691;52.486;4.650;2023-04-19T09:53:20;102898.28;;;14.17;44.79
37852;BME280;23691;52.486;4.650;2023-04-19T09:55:49;102892.63;;;14.30;44.79
37852;BME280;23691;52.486;4.650;2023-04-19T09:58:15;102893.75;;;14.37;44.59
37852;BME280;23691;52.486;4.650;2023-04-19T10:00:43;102898.31;;;14.36;44.42
37852;BME280;23691;52.486;4.650;2023-04-19T10:03:09;102887.09;;;14.31;43.81
37852;BME280;23691;52.486;4.650;2023-04-19T10:05:39;102889.38;;;14.36;43.93
37852;BME280;23691;52.486;4.650;2023-04-19T10:08:10;102891.66;;;14.41;43.76
37852;BME280;23691;52.486;4.650;2023-04-19T10:10:36;102902.44;;;14.50;43.60
37852;BME280;23691;52.486;4.650;2023-04-19T10:13:06;102891.41;;;14.53;43.01
37852;BME280;23691;52.486;4.650;2023-04-19T10:15:35;102898.66;;;14.63;42.84
37852;BME280;23691;52.486;4.650;2023-04-19T10:18:02;102883.47;;;14.62;42.43
37852;BME280;23691;52.486;4.650;2023-04-19T10:20:38;102887.72;;;14.54;42.18
37852;BME280;23691;52.486;4.650;2023-04-19T10:23:06;102876.50;;;14.49;41.90
37852;BME280;23691;52.486;4.650;2023-04-19T10:25:35;102883.91;;;14.57;42.00
37852;BME280;23691;52.486;4.650;2023-04-19T10:28:01;102887.72;;;14.64;42.29
37852;BME280;23691;52.486;4.650;2023-04-19T10:30:35;102875.69;;;14.68;41.30
37852;BME280;23691;52.486;4.650;2023-04-19T10:33:03;102887.47;;;14.67;41.57
37852;BME280;23691;52.486;4.650;2023-04-19T10:35:36;102864.78;;;14.79;41.87
37852;BME280;23691;52.486;4.650;2023-04-19T10:38:08;102863.63;;;14.92;41.92
37852;BME280;23691;52.486;4.650;2023-04-19T10:43:16;102862.47;;;14.94;41.09
37852;BME280;23691;52.486;4.650;2023-04-19T10:45:46;102871.13;;;14.98;40.50
37852;BME280;23691;52.486;4.650;2023-04-19T10:48:34;102860.75;;;15.03;40.09
37852;BME280;23691;52.486;4.650;2023-04-19T10:51:12;102865.72;;;15.08;40.17
37852;BME280;23691;52.486;4.650;2023-04-19T10:56:15;102856.47;;;15.10;39.68
37852;BME280;23691;52.486;4.650;2023-04-19T11:01:43;102864.94;;;15.35;39.92
37852;BME280;23691;52.486;4.650;2023-04-19T11:04:14;102847.25;;;15.50;39.83
37852;BME280;23691;52.486;4.650;2023-04-19T11:09:27;102855.56;;;15.76;39.54
37852;BME280;23691;52.486;4.650;2023-04-19T11:12:00;102849.09;;;15.87;39.78
37852;BME280;23691;52.486;4.650;2023-04-19T11:14:29;102835.28;;;16.00;39.21
37852;BME280;23691;52.486;4.650;2023-04-19T11:16:54;102840.38;;;16.03;39.22
37852;BME280;23691;52.486;4.650;2023-04-19T11:19:20;102842.88;;;16.04;38.88
37852;BME280;23691;52.486;4.650;2023-04-19T11:21:46;102843.06;;;16.03;38.37
37852;BME280;23691;52.486;4.650;2023-04-19T11:24:12;102853.28;;;15.99;38.45
37852;BME280;23691;52.486;4.650;2023-04-19T11:26:41;102831.69;;;15.99;37.85
37852;BME280;23691;52.486;4.650;2023-04-19T11:29:08;102823.53;;;15.91;37.38
37852;BME280;23691;52.486;4.650;2023-04-19T11:31:34;102812.59;;;15.93;37.78
37852;BME280;23691;52.486;4.650;2023-04-19T11:33:59;102822.06;;;15.97;37.36
37852;BME280;23691;52.486;4.650;2023-04-19T11:36:26;102812.53;;;16.02;37.12
37852;BME280;23691;52.486;4.650;2023-04-19T11:38:52;102824.94;;;16.13;36.71
37852;BME280;23691;52.486;4.650;2023-04-19T11:41:18;102820.31;;;16.23;36.44
37852;BME280;23691;52.486;4.650;2023-04-19T11:43:43;102799.78;;;16.30;35.19
37852;BME280;23691;52.486;4.650;2023-04-19T11:46:13;102811.13;;;16.34;35.29
37852;BME280;23691;52.486;4.650;2023-04-19T11:48:49;102813.91;;;16.42;35.55
37852;BME280;23691;52.486;4.650;2023-04-19T11:51:15;102813.59;;;16.45;35.60
37852;BME280;23691;52.486;4.650;2023-04-19T11:53:40;102792.34;;;16.50;35.72
37852;BME280;23691;52.486;4.650;2023-04-19T11:56:07;102814.03;;;16.59;35.86
37852;BME280;23691;52.486;4.650;2023-04-19T11:58:37;102793.09;;;16.61;35.71
37852;BME280;23691;52.486;4.650;2023-04-19T12:01:04;102786.06;;;16.68;35.89
37852;BME280;23691;52.486;4.650;2023-04-19T12:03:31;102798.78;;;16.75;35.91
37852;BME280;23691;52.486;4.650;2023-04-19T12:05:59;102794.41;;;16.74;35.97
37852;BME280;23691;52.486;4.650;2023-04-19T12:08:35;102797.94;;;16.75;35.33
37852;BME280;23691;52.486;4.650;2023-04-19T12:11:01;102798.72;;;16.85;35.35
37852;BME280;23691;52.486;4.650;2023-04-19T12:13:30;102787.81;;;16.95;35.11
37852;BME280;23691;52.486;4.650;2023-04-19T12:15:55;102787.81;;;16.95;34.22
37852;BME280;23691;52.486;4.650;2023-04-19T12:18:21;102786.81;;;16.96;33.90
37852;BME280;23691;52.486;4.650;2023-04-19T12:20:48;102781.78;;;17.01;34.22
37852;BME280;23691;52.486;4.650;2023-04-19T12:23:14;102796.72;;;17.13;34.20
37852;BME280;23691;52.486;4.650;2023-04-19T12:25:40;102788.16;;;17.26;33.96
37852;BME280;23691;52.486;4.650;2023-04-19T12:28:06;102788.03;;;17.36;33.86
37852;BME280;23691;52.486;4.650;2023-04-19T12:30:32;102783.69;;;17.43;34.19
37852;BME280;23691;52.486;4.650;2023-04-19T12:32:58;102773.91;;;17.58;34.07
37852;BME280;23691;52.486;4.650;2023-04-19T12:35:25;102789.72;;;17.79;34.03
37852;BME280;23691;52.486;4.650;2023-04-19T12:37:52;102776.59;;;17.93;33.49
37852;BME280;23691;52.486;4.650;2023-04-19T12:40:18;102767.97;;;17.97;33.35
37852;BME280;23691;52.486;4.650;2023-04-19T12:42:43;102774.91;;;18.00;32.82
37852;BME280;23691;52.486;4.650;2023-04-19T12:45:09;102777.13;;;18.05;32.77
37852;BME280;23691;52.486;4.650;2023-04-19T12:47:35;102767.31;;;18.12;32.91
37852;BME280;23691;52.486;4.650;2023-04-19T12:50:01;102768.50;;;18.17;32.57
37852;BME280;23691;52.486;4.650;2023-04-19T12:52:26;102752.06;;;18.27;32.81
37852;BME280;23691;52.486;4.650;2023-04-19T12:54:52;102757.31;;;18.37;32.94
37852;BME280;23691;52.486;4.650;2023-04-19T12:57:17;102754.09;;;18.33;32.83
37852;BME280;23691;52.486;4.650;2023-04-19T12:59:42;102741.06;;;18.45;33.20
37852;BME280;23691;52.486;4.650;2023-04-19T13:02:08;102752.75;;;18.54;32.76
37852;BME280;23691;52.486;4.650;2023-04-19T13:04:33;102739.31;;;18.60;33.28
37852;BME280;23691;52.486;4.650;2023-04-19T13:06:58;102741.03;;;18.78;33.42
37852;BME280;23691;52.486;4.650;2023-04-19T13:09:27;102745.94;;;18.91;33.53